createdAt,value
2022-08-21T00:00:09.175Z,79.63
2022-08-21T00:02:36.200Z,79.63
2022-08-21T00:05:03.637Z,79.70
2022-08-21T00:07:30.124Z,79.60
2022-08-21T00:09:57.066Z,79.68
2022-08-21T00:12:23.801Z,79.66
2022-08-21T00:14:50.277Z,79.73
2022-08-21T00:17:21.261Z,79.71
2022-08-21T00:19:47.700Z,79.72
2022-08-21T00:22:14.146Z,79.86
2022-08-21T00:24:40.801Z,79.60
2022-08-21T00:27:07.380Z,79.81
2022-08-21T00:29:33.907Z,79.82
2022-08-21T00:32:00.787Z,79.88
2022-08-21T00:34:27.927Z,79.81
2022-08-21T00:36:54.806Z,79.82
2022-08-21T00:39:21.243Z,79.87
2022-08-21T00:41:47.661Z,79.80
2022-08-21T00:44:15.133Z,80.05
2022-08-21T00:46:42.321Z,79.92
2022-08-21T00:49:09.627Z,79.94
2022-08-21T00:51:39.665Z,79.97
2022-08-21T00:54:10.718Z,80.06
2022-08-21T00:56:46.278Z,79.85
2022-08-21T00:59:13.736Z,80.07
2022-08-21T01:01:40.246Z,79.89
2022-08-21T01:04:06.747Z,80.04
2022-08-21T01:06:33.433Z,80.12
2022-08-21T01:09:00.100Z,79.99
2022-08-21T01:11:26.506Z,80.07
2022-08-21T01:13:53.332Z,79.82
2022-08-21T01:16:21.279Z,79.92
2022-08-21T01:18:49.010Z,80.02
2022-08-21T01:21:23.331Z,80.12
2022-08-21T01:23:55.821Z,80.23
2022-08-21T01:26:29.075Z,79.89
2022-08-21T01:29:20.993Z,80.07
2022-08-21T01:31:47.407Z,80.12
2022-08-21T01:34:14.383Z,80.04
2022-08-21T01:36:40.838Z,80.15
2022-08-21T01:39:07.427Z,80.13
2022-08-21T01:41:33.863Z,79.98
2022-08-21T01:44:00.515Z,79.82
2022-08-21T01:46:26.912Z,79.69
2022-08-21T01:48:53.464Z,79.47
2022-08-21T01:51:19.972Z,79.51
2022-08-21T01:53:46.375Z,79.53
2022-08-21T01:56:13.947Z,79.48
2022-08-21T01:58:44.036Z,79.35
2022-08-21T02:01:10.726Z,79.46
2022-08-21T02:03:37.659Z,79.42
2022-08-21T02:06:05.128Z,79.36
2022-08-21T02:08:32.215Z,79.40
2022-08-21T02:10:58.696Z,79.32
2022-08-21T02:13:25.102Z,79.20
2022-08-21T02:15:51.558Z,79.31
2022-08-21T02:18:17.934Z,79.19
2022-08-21T02:20:46.331Z,79.20
2022-08-21T02:23:13.439Z,79.24
2022-08-21T02:25:40.033Z,79.20
2022-08-21T02:28:07.971Z,79.20
2022-08-21T02:30:36.667Z,79.21
2022-08-21T02:33:03.157Z,79.28
2022-08-21T02:35:29.580Z,79.25
2022-08-21T02:37:58.511Z,79.21
2022-08-21T02:40:26.979Z,79.16
2022-08-21T02:42:53.693Z,79.20
2022-08-21T02:45:20.914Z,79.03
2022-08-21T02:47:52.103Z,79.26
2022-08-21T02:50:23.942Z,79.10
2022-08-21T02:52:55.118Z,79.24
2022-08-21T02:55:23.067Z,79.11
2022-08-21T02:57:49.448Z,79.18
2022-08-21T03:00:16.147Z,79.17
2022-08-21T03:02:42.634Z,79.23
2022-08-21T03:05:11.069Z,79.22
2022-08-21T03:07:38.591Z,79.11
2022-08-21T03:10:05.627Z,79.03
2022-08-21T03:12:32.086Z,78.97
2022-08-21T03:14:58.868Z,78.97
2022-08-21T03:17:29.986Z,79.02
2022-08-21T03:19:57.555Z,78.77
2022-08-21T03:22:24.018Z,78.83
2022-08-21T03:24:50.864Z,78.94
2022-08-21T03:27:18.763Z,78.77
2022-08-21T03:29:46.495Z,78.66
2022-08-21T03:32:12.916Z,78.83
2022-08-21T03:34:39.659Z,78.87
2022-08-21T03:37:07.871Z,78.72
2022-08-21T03:39:35.311Z,78.77
2022-08-21T03:42:02.199Z,78.78
2022-08-21T03:44:30.142Z,78.71
2022-08-21T03:46:57.119Z,78.51
2022-08-21T03:49:24.926Z,78.50
2022-08-21T03:51:59.893Z,78.56
2022-08-21T03:54:26.520Z,78.53
2022-08-21T03:56:55.488Z,78.66
2022-08-21T03:59:22.041Z,78.50
2022-08-21T04:01:58.834Z,78.33
2022-08-21T04:04:25.438Z,78.30
2022-08-21T04:06:51.911Z,78.48
2022-08-21T04:09:18.648Z,78.42
2022-08-21T04:11:46.415Z,78.50
2022-08-21T04:14:13.083Z,78.45
2022-08-21T04:16:39.519Z,78.45
2022-08-21T04:19:05.971Z,78.42
2022-08-21T04:21:32.925Z,78.48
2022-08-21T04:24:00.332Z,78.33
2022-08-21T04:26:26.982Z,78.27
2022-08-21T04:28:53.447Z,78.09
2022-08-21T04:31:19.908Z,78.34
2022-08-21T04:33:46.375Z,78.12
2022-08-21T04:36:13.025Z,78.30
2022-08-21T04:38:39.754Z,78.07
2022-08-21T04:41:11.201Z,78.22
2022-08-21T04:43:38.700Z,78.35
2022-08-21T04:46:06.740Z,78.11
2022-08-21T04:48:36.825Z,78.14
2022-08-21T04:51:03.186Z,78.22
2022-08-21T04:53:32.882Z,78.11
2022-08-21T04:56:02.394Z,78.05
2022-08-21T04:58:29.791Z,77.96
2022-08-21T05:00:57.728Z,78.10
2022-08-21T05:03:24.359Z,77.78
2022-08-21T05:05:50.970Z,77.84
2022-08-21T05:08:19.057Z,77.87
2022-08-21T05:10:45.710Z,77.93
2022-08-21T05:13:13.687Z,78.04
2022-08-21T05:15:40.831Z,78.09
2022-08-21T05:18:08.065Z,77.85
2022-08-21T05:20:37.458Z,77.94
2022-08-21T05:23:10.701Z,77.89
2022-08-21T05:25:37.132Z,77.88
2022-08-21T05:28:03.930Z,77.88
2022-08-21T05:30:30.423Z,77.82
2022-08-21T05:33:01.012Z,77.96
2022-08-21T05:35:28.139Z,77.86
2022-08-21T05:37:54.737Z,77.91
2022-08-21T05:40:23.389Z,77.78
2022-08-21T05:42:55.367Z,77.96
2022-08-21T05:45:41.296Z,77.97
2022-08-21T05:48:21.185Z,77.93
2022-08-21T05:50:48.246Z,78.20
2022-08-21T05:53:15.452Z,77.91
2022-08-21T05:55:45.734Z,77.94
2022-08-21T05:58:17.586Z,77.91
2022-08-21T06:00:44.874Z,77.93
2022-08-21T06:03:12.174Z,78.11
2022-08-21T06:05:38.763Z,77.96
2022-08-21T06:08:05.191Z,78.13
2022-08-21T06:10:32.329Z,77.97
2022-08-21T06:12:58.930Z,77.98
2022-08-21T06:15:25.458Z,77.98
2022-08-21T06:17:53.378Z,78.00
2022-08-21T06:20:19.844Z,77.93
2022-08-21T06:22:46.270Z,77.90
2022-08-21T06:25:12.728Z,77.94
2022-08-21T06:27:39.225Z,77.82
2022-08-21T06:30:06.220Z,77.91
2022-08-21T06:32:32.665Z,78.01
2022-08-21T06:34:59.889Z,77.99
2022-08-21T06:37:26.360Z,77.80
2022-08-21T06:39:53.163Z,77.94
2022-08-21T06:42:19.972Z,77.93
2022-08-21T06:44:47.021Z,77.90
2022-08-21T06:47:13.435Z,77.91
2022-08-21T06:49:40.362Z,77.82
2022-08-21T06:52:13.765Z,77.96
2022-08-21T06:54:40.605Z,77.65
2022-08-21T06:57:07.268Z,77.97
2022-08-21T06:59:33.770Z,77.71
2022-08-21T07:02:00.770Z,77.85
2022-08-21T07:04:27.493Z,77.86
2022-08-21T07:06:53.923Z,77.86
2022-08-21T07:09:24.410Z,77.90
2022-08-21T07:11:52.888Z,77.87
2022-08-21T07:14:20.296Z,77.84
2022-08-21T07:16:47.264Z,77.94
2022-08-21T07:19:13.799Z,77.88
2022-08-21T07:21:40.181Z,77.73
2022-08-21T07:24:06.587Z,77.73
2022-08-21T07:26:33.083Z,77.78
2022-08-21T07:28:59.475Z,77.75
2022-08-21T07:31:26.329Z,77.68
2022-08-21T07:33:53.181Z,77.62
2022-08-21T07:36:19.630Z,77.78
2022-08-21T07:38:46.356Z,77.76
2022-08-21T07:41:17.819Z,77.70
2022-08-21T07:43:45.971Z,77.58
2022-08-21T07:46:13.589Z,77.67
2022-08-21T07:48:40.356Z,77.62
2022-08-21T07:51:08.747Z,77.73
2022-08-21T07:53:35.681Z,77.68
2022-08-21T07:56:02.648Z,77.67
2022-08-21T07:58:29.816Z,77.60
2022-08-21T08:00:56.538Z,77.60
2022-08-21T08:03:28.835Z,77.56
2022-08-21T08:05:55.842Z,77.50
2022-08-21T08:08:22.456Z,77.65
2022-08-21T08:10:50.479Z,77.65
2022-08-21T08:13:20.198Z,77.51
2022-08-21T08:15:46.751Z,77.49
2022-08-21T08:18:13.891Z,77.77
2022-08-21T08:20:40.348Z,77.28
2022-08-21T08:23:06.852Z,77.49
2022-08-21T08:25:36.819Z,77.37
2022-08-21T08:28:17.308Z,77.68
2022-08-21T08:30:44.698Z,77.76
2022-08-21T08:33:11.582Z,77.56
2022-08-21T08:35:39.045Z,77.58
2022-08-21T08:38:06.687Z,77.68
2022-08-21T08:41:01.050Z,77.55
2022-08-21T08:43:28.406Z,76.90
2022-08-21T08:45:56.619Z,76.39
2022-08-21T08:48:34.196Z,75.90
2022-08-21T08:51:01.888Z,75.89
2022-08-21T08:53:33.742Z,75.77
2022-08-21T08:56:01.885Z,75.47
2022-08-21T08:58:31.333Z,75.66
2022-08-21T09:00:58.010Z,75.41
2022-08-21T09:03:25.285Z,75.50
2022-08-21T09:06:10.789Z,75.43
2022-08-21T09:09:03.427Z,75.64
2022-08-21T09:11:54.259Z,75.57
2022-08-21T09:14:27.405Z,75.74
2022-08-21T09:17:06.035Z,75.76
2022-08-21T09:19:50.599Z,75.64
2022-08-21T09:22:19.911Z,75.58
2022-08-21T09:24:58.525Z,75.56
2022-08-21T09:27:25.187Z,75.70
2022-08-21T09:29:53.413Z,75.55
2022-08-21T09:32:22.355Z,75.86
2022-08-21T09:34:59.607Z,75.82
2022-08-21T09:37:27.136Z,75.96
2022-08-21T09:39:53.589Z,75.92
2022-08-21T09:42:24.876Z,76.06
2022-08-21T09:45:05.814Z,75.99
2022-08-21T09:47:33.422Z,75.80
2022-08-21T09:50:08.259Z,75.97
2022-08-21T09:52:35.151Z,75.96
2022-08-21T09:55:21.619Z,76.06
2022-08-21T09:57:50.230Z,75.91
2022-08-21T10:00:20.823Z,75.90
2022-08-21T10:02:47.576Z,75.93
2022-08-21T10:05:19.364Z,75.92
2022-08-21T10:07:45.942Z,75.93
2022-08-21T10:10:18.488Z,75.98
2022-08-21T10:12:59.895Z,76.02
2022-08-21T10:15:43.311Z,75.88
2022-08-21T10:18:23.000Z,76.14
2022-08-21T10:21:11.739Z,75.98
2022-08-21T10:23:47.656Z,75.97
2022-08-21T10:26:14.645Z,75.75
2022-08-21T10:28:41.116Z,75.80
2022-08-21T10:31:27.759Z,76.10
2022-08-21T10:34:23.703Z,75.96
2022-08-21T10:36:50.074Z,75.98
2022-08-21T10:39:35.485Z,75.93
2022-08-21T10:42:05.685Z,75.90
2022-08-21T10:44:45.369Z,75.96
2022-08-21T10:47:30.691Z,76.07
2022-08-21T10:50:15.862Z,76.02
2022-08-21T10:52:44.083Z,76.33
2022-08-21T10:55:15.627Z,76.19
2022-08-21T10:57:57.364Z,76.11
2022-08-21T11:00:27.871Z,76.01
2022-08-21T11:02:57.784Z,75.98
2022-08-21T11:05:34.281Z,75.84
2022-08-21T11:08:07.958Z,75.61
2022-08-21T11:10:51.322Z,75.85
2022-08-21T11:13:34.275Z,76.14
2022-08-21T11:16:03.685Z,76.02
2022-08-21T11:18:40.967Z,76.06
2022-08-21T11:21:26.968Z,76.04
2022-08-21T11:24:18.127Z,76.09
2022-08-21T11:27:04.846Z,76.23
2022-08-21T11:29:35.998Z,76.18
2022-08-21T11:32:13.664Z,76.11
2022-08-21T11:35:09.103Z,76.06
2022-08-21T11:37:38.564Z,76.21
2022-08-21T11:40:25.749Z,76.17
2022-08-21T11:43:15.487Z,75.93
2022-08-21T11:45:52.854Z,75.72
2022-08-21T11:48:41.362Z,75.72
2022-08-21T11:51:13.794Z,75.83
2022-08-21T11:54:16.191Z,75.65
2022-08-21T11:56:46.611Z,75.73
2022-08-21T11:59:20.948Z,75.86
2022-08-21T12:01:49.431Z,75.76
2022-08-21T12:04:22.386Z,74.58
2022-08-21T12:06:53.000Z,75.40
2022-08-21T12:09:25.258Z,75.50
2022-08-21T12:12:01.243Z,75.77
2022-08-21T12:14:42.968Z,75.99
2022-08-21T12:17:20.353Z,76.17
2022-08-21T12:19:57.955Z,76.14
2022-08-21T12:22:36.240Z,76.28
2022-08-21T12:25:10.866Z,76.30
2022-08-21T12:28:00.193Z,76.37
2022-08-21T12:30:29.398Z,76.51
2022-08-21T12:32:57.778Z,76.38
2022-08-21T12:35:44.574Z,76.32
2022-08-21T12:38:20.113Z,76.52
2022-08-21T12:41:01.657Z,76.56
2022-08-21T12:43:36.935Z,76.56
2022-08-21T12:46:05.467Z,76.42
2022-08-21T12:49:03.057Z,76.63
2022-08-21T12:51:37.443Z,76.56
2022-08-21T12:54:04.296Z,76.45
2022-08-21T12:56:31.915Z,76.32
2022-08-21T12:59:04.531Z,75.53
2022-08-21T13:01:46.924Z,75.91
2022-08-21T13:04:16.690Z,75.91
2022-08-21T13:06:47.303Z,75.90
2022-08-21T13:09:17.076Z,76.01
2022-08-21T13:11:45.617Z,75.90
2022-08-21T13:14:21.144Z,75.48
2022-08-21T13:16:48.181Z,75.23
2022-08-21T13:19:23.940Z,75.67
2022-08-21T13:21:50.691Z,74.65
2022-08-21T13:24:41.402Z,75.14
2022-08-21T13:27:16.151Z,73.29
2022-08-21T13:29:42.572Z,69.97
2022-08-21T13:32:22.133Z,73.00
2022-08-21T13:34:48.975Z,74.35
2022-08-21T13:37:21.637Z,74.99
2022-08-21T13:39:52.975Z,75.34
2022-08-21T13:42:20.242Z,75.78
2022-08-21T13:44:47.903Z,75.76
2022-08-21T13:47:16.162Z,75.28
2022-08-21T13:49:47.127Z,74.44
2022-08-21T13:52:20.367Z,74.10
2022-08-21T13:54:53.648Z,74.98
2022-08-21T13:57:40.793Z,75.40
2022-08-21T14:00:15.771Z,72.11
2022-08-21T14:02:44.390Z,70.67
2022-08-21T14:05:16.986Z,73.80
2022-08-21T14:07:43.851Z,73.42
2022-08-21T14:10:18.970Z,74.93
2022-08-21T14:12:48.490Z,74.26
2022-08-21T14:15:16.216Z,74.82
2022-08-21T14:17:43.307Z,75.16
2022-08-21T14:20:11.398Z,75.04
2022-08-21T14:22:40.726Z,75.26
2022-08-21T14:25:09.135Z,75.26
2022-08-21T14:27:37.415Z,75.30
2022-08-21T14:30:17.326Z,75.20
2022-08-21T14:32:44.837Z,75.16
2022-08-21T14:35:13.295Z,75.08
2022-08-21T14:37:42.988Z,75.24
2022-08-21T14:40:09.856Z,75.14
2022-08-21T14:42:36.668Z,74.87
2022-08-21T14:45:23.807Z,74.74
2022-08-21T14:47:54.560Z,74.22
2022-08-21T14:50:21.151Z,73.96
2022-08-21T14:52:47.602Z,74.27
2022-08-21T14:55:15.286Z,74.23
2022-08-21T14:57:50.787Z,74.34
2022-08-21T15:00:18.779Z,74.70
2022-08-21T15:02:45.486Z,74.65
2022-08-21T15:05:12.010Z,74.36
2022-08-21T15:07:39.272Z,73.92
2022-08-21T15:10:09.363Z,73.98
2022-08-21T15:12:36.627Z,74.39
2022-08-21T15:15:03.218Z,74.33
2022-08-21T15:17:29.713Z,74.29
2022-08-21T15:19:56.259Z,74.57
2022-08-21T15:22:27.896Z,74.45
2022-08-21T15:24:54.886Z,74.21
2022-08-21T15:27:21.424Z,74.39
2022-08-21T15:29:48.013Z,74.57
2022-08-21T15:32:23.443Z,74.83
2022-08-21T15:34:50.698Z,74.86
2022-08-21T15:37:17.093Z,74.88
2022-08-21T15:39:44.248Z,74.87
2022-08-21T15:42:13.531Z,74.85
2022-08-21T15:44:41.153Z,74.44
2022-08-21T15:47:12.205Z,74.71
2022-08-21T15:49:38.667Z,74.57
2022-08-21T15:52:05.136Z,74.58
2022-08-21T15:54:31.675Z,74.88
2022-08-21T15:56:58.623Z,74.64
2022-08-21T15:59:26.238Z,74.91
2022-08-21T16:01:52.985Z,75.01
2022-08-21T16:04:24.662Z,74.94
2022-08-21T16:06:55.646Z,74.80
2022-08-21T16:09:23.578Z,74.81
2022-08-21T16:11:50.407Z,74.81
2022-08-21T16:14:17.529Z,74.86
2022-08-21T16:16:43.978Z,74.73
2022-08-21T16:19:11.639Z,74.71
2022-08-21T16:21:38.083Z,74.76
2022-08-21T16:24:05.099Z,74.83
2022-08-21T16:26:31.912Z,74.85
2022-08-21T16:29:01.261Z,74.83
2022-08-21T16:31:27.948Z,75.00
2022-08-21T16:33:57.881Z,74.88
2022-08-21T16:36:26.657Z,74.94
2022-08-21T16:38:56.631Z,74.88
2022-08-21T16:41:24.054Z,75.06
2022-08-21T16:43:51.426Z,75.14
2022-08-21T16:46:18.844Z,75.08
2022-08-21T16:48:45.319Z,75.02
2022-08-21T16:51:12.660Z,75.06
2022-08-21T16:53:39.078Z,75.27
2022-08-21T16:56:06.907Z,75.34
2022-08-21T16:58:35.358Z,75.11
2022-08-21T17:01:05.888Z,75.07
2022-08-21T17:03:35.015Z,75.19
2022-08-21T17:06:01.558Z,75.32
2022-08-21T17:08:28.319Z,75.26
2022-08-21T17:10:54.979Z,75.22
2022-08-21T17:13:21.778Z,75.12
2022-08-21T17:15:48.163Z,75.24
2022-08-21T17:18:16.343Z,75.47
2022-08-21T17:20:42.763Z,75.50
2022-08-21T17:23:09.522Z,75.38
2022-08-21T17:25:40.202Z,75.40
2022-08-21T17:28:07.725Z,75.35
2022-08-21T17:30:34.302Z,75.37
2022-08-21T17:33:01.185Z,75.47
2022-08-21T17:35:27.631Z,75.55
2022-08-21T17:37:54.151Z,75.60
2022-08-21T17:40:21.405Z,75.47
2022-08-21T17:42:48.371Z,75.45
2022-08-21T17:45:16.448Z,75.57
2022-08-21T17:47:43.428Z,75.32
2022-08-21T17:50:12.228Z,75.26
2022-08-21T17:52:38.852Z,74.95
2022-08-21T17:55:06.351Z,74.46
2022-08-21T17:57:35.243Z,74.06
2022-08-21T18:00:02.585Z,73.48
2022-08-21T18:02:30.569Z,73.26
2022-08-21T18:04:57.046Z,73.34
2022-08-21T18:07:31.743Z,73.13
2022-08-21T18:09:59.959Z,73.25
2022-08-21T18:12:27.227Z,72.97
2022-08-21T18:14:53.699Z,72.99
2022-08-21T18:17:21.331Z,72.89
2022-08-21T18:19:49.027Z,72.83
2022-08-21T18:22:16.101Z,72.64
2022-08-21T18:24:43.769Z,72.88
2022-08-21T18:27:10.503Z,72.85
2022-08-21T18:29:47.507Z,72.95
2022-08-21T18:32:30.538Z,73.08
2022-08-21T18:34:59.268Z,72.81
2022-08-21T18:37:26.376Z,73.01
2022-08-21T18:39:52.930Z,73.12
2022-08-21T18:42:19.455Z,73.13
2022-08-21T18:44:50.655Z,73.15
2022-08-21T18:47:32.638Z,73.25
2022-08-21T18:49:59.178Z,73.40
2022-08-21T18:52:28.609Z,73.28
2022-08-21T18:54:56.036Z,73.43
2022-08-21T18:57:24.551Z,73.52
2022-08-21T18:59:51.132Z,73.71
2022-08-21T19:02:17.796Z,73.53
2022-08-21T19:04:45.183Z,73.49
2022-08-21T19:07:13.854Z,73.59
2022-08-21T19:09:40.644Z,73.67
2022-08-21T19:12:10.362Z,73.87
2022-08-21T19:14:40.921Z,73.77
2022-08-21T19:17:08.607Z,73.83
2022-08-21T19:19:36.294Z,74.01
2022-08-21T19:22:06.235Z,74.17
2022-08-21T19:24:37.416Z,74.29
2022-08-21T19:27:03.912Z,74.23
2022-08-21T19:29:34.600Z,74.09
2022-08-21T19:32:03.218Z,74.19
2022-08-21T19:34:30.027Z,74.21
2022-08-21T19:36:56.851Z,74.24
2022-08-21T19:39:24.006Z,74.46
2022-08-21T19:41:53.952Z,74.30
2022-08-21T19:44:23.760Z,74.29
2022-08-21T19:46:52.072Z,74.39
2022-08-21T19:49:21.064Z,74.35
2022-08-21T19:51:49.341Z,74.33
2022-08-21T19:54:23.732Z,74.44
2022-08-21T19:56:50.583Z,74.50
2022-08-21T19:59:18.192Z,74.47
2022-08-21T20:01:51.222Z,74.50
2022-08-21T20:04:19.355Z,74.47
2022-08-21T20:06:46.468Z,74.56
2022-08-21T20:09:14.370Z,74.39
2022-08-21T20:11:43.447Z,74.41
2022-08-21T20:14:12.410Z,74.57
2022-08-21T20:16:39.655Z,74.61
2022-08-21T20:19:08.285Z,74.57
2022-08-21T20:21:44.243Z,74.54
2022-08-21T20:24:11.567Z,74.42
2022-08-21T20:26:58.364Z,74.59
2022-08-21T20:29:31.458Z,74.48
2022-08-21T20:32:05.213Z,74.63
2022-08-21T20:34:32.206Z,74.65
2022-08-21T20:39:47.152Z,74.81
2022-08-21T20:42:13.643Z,74.83
2022-08-21T20:44:46.476Z,74.93
2022-08-21T20:47:13.597Z,74.87
2022-08-21T20:49:46.603Z,74.75
2022-08-21T20:52:14.584Z,74.94
2022-08-21T20:54:44.051Z,74.99
2022-08-21T20:57:16.685Z,74.85
2022-08-21T20:59:50.330Z,74.91
2022-08-21T21:02:16.687Z,74.81
2022-08-21T21:04:48.102Z,74.79
2022-08-21T21:07:21.126Z,74.75
2022-08-21T21:09:48.931Z,74.79
2022-08-21T21:12:27.954Z,74.67
2022-08-21T21:14:58.339Z,74.81
2022-08-21T21:17:47.458Z,74.58
2022-08-21T21:20:21.105Z,74.62
2022-08-21T21:22:55.147Z,74.69
2022-08-21T21:25:21.539Z,74.65
2022-08-21T21:27:53.184Z,74.65
2022-08-21T21:30:27.119Z,74.65
2022-08-21T21:32:53.584Z,74.66
2022-08-21T21:35:32.277Z,74.63
2022-08-21T21:38:07.210Z,74.61
2022-08-21T21:40:46.414Z,74.54
2022-08-21T21:43:18.783Z,74.48
2022-08-21T21:46:03.919Z,74.61
2022-08-21T21:48:56.234Z,74.62
2022-08-21T21:51:40.857Z,74.50
2022-08-21T21:54:27.550Z,74.50
2022-08-21T21:56:55.331Z,74.47
2022-08-21T21:59:30.598Z,74.49
2022-08-21T22:02:13.343Z,74.60
2022-08-21T22:04:52.106Z,74.53
2022-08-21T22:07:21.266Z,74.59
2022-08-21T22:10:05.440Z,74.77
2022-08-21T22:13:09.888Z,74.76
2022-08-21T22:15:37.648Z,74.65
2022-08-21T22:18:11.770Z,74.64
2022-08-21T22:20:41.681Z,74.55
2022-08-21T22:23:13.372Z,74.42
2022-08-21T22:25:44.795Z,74.48
2022-08-21T22:28:13.710Z,74.46
2022-08-21T22:30:42.410Z,74.37
2022-08-21T22:33:26.114Z,74.37
2022-08-21T22:35:54.563Z,74.31
2022-08-21T22:38:29.186Z,74.26
2022-08-21T22:41:19.154Z,74.26
2022-08-21T22:43:54.798Z,74.31
2022-08-21T22:46:27.410Z,74.39
2022-08-21T22:48:58.486Z,74.26
2022-08-21T22:51:33.687Z,74.34
2022-08-21T22:54:01.234Z,74.41
2022-08-21T22:56:32.695Z,74.19
2022-08-21T22:59:02.213Z,74.32
2022-08-21T23:01:33.391Z,74.37
2022-08-21T23:04:12.227Z,74.31
2022-08-21T23:06:43.479Z,74.20
2022-08-21T23:09:39.381Z,74.19
2022-08-21T23:14:54.769Z,74.30
2022-08-21T23:17:29.292Z,74.36
2022-08-21T23:20:04.589Z,74.37
2022-08-21T23:22:43.249Z,74.33
2022-08-21T23:25:09.654Z,74.42
2022-08-21T23:27:36.087Z,74.42
2022-08-21T23:30:23.394Z,74.18
2022-08-21T23:33:07.300Z,74.31
2022-08-21T23:36:09.211Z,74.19
2022-08-21T23:38:44.505Z,74.21
2022-08-21T23:41:34.125Z,74.06
2022-08-21T23:44:04.109Z,74.06
2022-08-21T23:46:49.789Z,74.12
2022-08-21T23:49:35.047Z,73.99
2022-08-21T23:52:07.644Z,73.92
2022-08-21T23:54:34.132Z,73.88
2022-08-21T23:57:00.676Z,73.85
2022-08-21T23:59:36.276Z,73.99
